Time;durP1;ratioP1;P1;durP2;ratioP2;P2;SDS_P1;SDS_P2;PMS_P1;PMS_P2;Temp;Humidity;BMP_temperature;BMP_pressure;BME280_temperature;BME280_humidity;BME280_pressure;Samples;Min_cycle;Max_cycle;Signal;HPM_P1;HPM_P2
2022/05/17 00:02:05;;;;;;;17.85;6.97;;;17.80;99.90;;;;;;5054348;28;20076;-68
2022/05/17 00:04:32;;;;;;;17.63;6.75;;;17.80;99.90;;;;;;5054734;28;20049;-68
2022/05/17 00:06:59;;;;;;;16.30;6.63;;;17.70;99.90;;;;;;5054609;28;20100;-69
2022/05/17 00:09:25;;;;;;;16.73;7.35;;;17.70;99.90;;;;;;5054655;28;20049;-68
2022/05/17 00:11:51;;;;;;;13.25;7.22;;;17.60;99.90;;;;;;5036719;28;20057;-68
2022/05/17 00:14:17;;;;;;;19.17;6.63;;;17.60;99.90;;;;;;5054039;28;20044;-68
2022/05/17 00:16:45;;;;;;;15.98;6.20;;;17.50;99.90;;;;;;5054433;28;20052;-68
2022/05/17 00:19:15;;;;;;;20.33;6.72;;;17.50;99.90;;;;;;5054253;28;20052;-68
2022/05/17 00:21:43;;;;;;;17.40;6.75;;;17.50;99.90;;;;;;5054265;28;20037;-69
2022/05/17 00:24:09;;;;;;;17.05;6.97;;;17.60;99.90;;;;;;5054252;28;20049;-68
2022/05/17 00:26:35;;;;;;;17.65;6.88;;;17.40;99.90;;;;;;5036070;28;20053;-68
2022/05/17 00:29:03;;;;;;;16.25;7.38;;;17.50;99.90;;;;;;5053332;28;20052;-68
2022/05/17 00:31:28;;;;;;;17.25;6.95;;;17.40;99.90;;;;;;5054245;28;20085;-68
2022/05/17 00:33:54;;;;;;;22.20;7.30;;;17.50;99.90;;;;;;5054018;28;20405;-68
2022/05/17 00:36:20;;;;;;;15.57;7.43;;;17.40;99.90;;;;;;5036516;28;20110;-68
2022/05/17 00:38:46;;;;;;;24.45;8.27;;;17.40;99.90;;;;;;5054103;28;20056;-68
2022/05/17 00:41:12;;;;;;;17.08;7.05;;;17.50;99.90;;;;;;5036106;28;20044;-68
2022/05/17 00:46:53;;;;;;;20.25;7.97;;;17.50;99.90;;;;;;5053838;28;20091;-68
2022/05/17 00:49:38;;;;;;;21.00;8.30;;;17.40;99.90;;;;;;5053081;28;20060;-68
2022/05/17 00:52:09;;;;;;;26.30;8.00;;;17.40;99.90;;;;;;5036103;28;20047;-68
2022/05/17 00:54:36;;;;;;;27.30;9.05;;;17.50;99.90;;;;;;5036152;28;20055;-68
2022/05/17 00:57:25;;;;;;;23.80;8.52;;;17.60;99.90;;;;;;5053816;28;20044;-68
2022/05/17 00:59:51;;;;;;;21.42;7.80;;;17.60;99.90;;;;;;5053465;28;20051;-68
2022/05/17 01:02:17;;;;;;;21.77;7.50;;;17.50;99.90;;;;;;5053206;28;20071;-68
2022/05/17 01:04:43;;;;;;;30.23;8.52;;;17.60;99.90;;;;;;5053682;28;20041;-68
2022/05/17 01:07:19;;;;;;;28.38;8.80;;;17.70;99.90;;;;;;5053526;28;20462;-68
2022/05/17 01:09:45;;;;;;;24.73;7.82;;;17.60;99.90;;;;;;5053693;28;20374;-68
2022/05/17 01:12:11;;;;;;;24.05;8.73;;;17.60;99.90;;;;;;5052961;28;20091;-68
2022/05/17 01:14:58;;;;;;;22.20;8.27;;;17.60;99.90;;;;;;5053533;28;20048;-68
2022/05/17 01:17:36;;;;;;;23.30;7.63;;;17.60;99.90;;;;;;5053472;28;20045;-68
2022/05/17 01:20:06;;;;;;;26.60;9.27;;;17.50;99.90;;;;;;5035574;28;20053;-68
2022/05/17 01:22:32;;;;;;;22.08;7.38;;;17.50;99.90;;;;;;5052992;28;20143;-68
2022/05/17 01:24:58;;;;;;;22.02;7.35;;;17.50;99.90;;;;;;5053241;28;20088;-68
2022/05/17 01:27:36;;;;;;;15.73;6.72;;;17.50;99.90;;;;;;5053041;28;20107;-68
2022/05/17 01:30:05;;;;;;;23.80;7.00;;;17.50;99.90;;;;;;5053523;28;20045;-68
2022/05/17 01:32:30;;;;;;;18.55;6.25;;;17.50;99.90;;;;;;5053401;28;20045;-68
2022/05/17 01:34:56;;;;;;;22.50;6.63;;;17.50;99.90;;;;;;5052962;28;20064;-68
2022/05/17 01:37:22;;;;;;;20.75;7.18;;;17.50;99.90;;;;;;5052922;28;20048;-68
2022/05/17 01:39:47;;;;;;;22.48;6.78;;;17.40;99.90;;;;;;5056310;28;20089;-68
2022/05/17 01:42:15;;;;;;;19.88;5.80;;;17.30;99.90;;;;;;5056883;28;20514;-68
2022/05/17 01:44:43;;;;;;;13.40;5.82;;;17.30;99.90;;;;;;5057399;28;20045;-68
2022/05/17 01:47:13;;;;;;;13.90;6.03;;;17.30;99.90;;;;;;5057163;28;20105;-68
2022/05/17 01:49:39;;;;;;;17.88;6.60;;;17.20;99.90;;;;;;5057877;28;20057;-68
2022/05/17 01:52:05;;;;;;;18.80;6.00;;;17.20;99.90;;;;;;5056931;28;20041;-68
2022/05/17 01:54:31;;;;;;;21.38;6.60;;;17.20;99.90;;;;;;5057047;28;20041;-68
2022/05/17 01:56:56;;;;;;;19.88;5.45;;;17.10;99.90;;;;;;5057252;28;20071;-68
2022/05/17 01:59:22;;;;;;;17.58;5.85;;;17.10;99.90;;;;;;5057169;28;20049;-68
2022/05/17 02:01:48;;;;;;;17.48;5.80;;;17.00;99.90;;;;;;5056788;28;20393;-68
2022/05/17 02:04:14;;;;;;;17.48;6.15;;;17.00;99.90;;;;;;5056793;28;20045;-67
2022/05/17 02:06:40;;;;;;;14.88;5.65;;;17.00;99.90;;;;;;5039175;28;20132;-68
2022/05/17 02:09:06;;;;;;;14.95;5.32;;;16.90;99.90;;;;;;5038939;28;20055;-68
2022/05/17 02:11:31;;;;;;;15.80;6.22;;;16.90;99.90;;;;;;5057286;28;20396;-68
2022/05/17 02:13:57;;;;;;;13.93;6.10;;;16.90;99.90;;;;;;5056124;28;20132;-68
2022/05/17 02:16:23;;;;;;;15.32;5.80;;;16.90;99.90;;;;;;5039189;28;20041;-68
2022/05/17 02:18:48;;;;;;;15.98;6.03;;;16.90;99.90;;;;;;5057012;28;20398;-68
2022/05/17 02:21:14;;;;;;;20.85;5.93;;;16.80;99.90;;;;;;5038745;28;20436;-68
2022/05/17 02:23:39;;;;;;;15.45;6.32;;;16.80;99.90;;;;;;5038792;28;20053;-68
2022/05/17 02:26:05;;;;;;;14.07;5.90;;;16.80;99.90;;;;;;5056667;28;20049;-68
2022/05/17 02:28:31;;;;;;;16.73;6.10;;;16.80;99.90;;;;;;5056648;28;20124;-68
2022/05/17 02:30:57;;;;;;;15.68;5.85;;;16.80;99.90;;;;;;5038509;28;20052;-68
2022/05/17 02:33:23;;;;;;;17.13;5.97;;;16.70;99.90;;;;;;5056516;28;20118;-68
2022/05/17 02:35:48;;;;;;;15.48;6.13;;;16.70;99.90;;;;;;5056232;28;20497;-68
2022/05/17 02:38:14;;;;;;;16.55;6.30;;;16.70;99.90;;;;;;5056279;28;20068;-68
2022/05/17 02:40:40;;;;;;;14.93;5.60;;;16.70;99.90;;;;;;5056207;28;20091;-68
2022/05/17 02:43:06;;;;;;;17.73;6.32;;;16.60;99.90;;;;;;5055667;28;20151;-68
2022/05/17 02:45:32;;;;;;;18.67;6.93;;;16.60;99.90;;;;;;5056218;28;20037;-68
2022/05/17 02:47:58;;;;;;;15.55;6.20;;;16.60;99.90;;;;;;5038383;28;20080;-68
2022/05/17 02:50:24;;;;;;;14.15;5.63;;;16.60;99.90;;;;;;5037211;28;20083;-68
2022/05/17 02:52:49;;;;;;;16.42;6.40;;;16.50;99.90;;;;;;5055951;28;20079;-68
2022/05/17 02:55:15;;;;;;;21.30;6.50;;;16.50;99.90;;;;;;5056109;28;20460;-68
2022/05/17 02:57:41;;;;;;;18.77;6.22;;;16.50;99.90;;;;;;5056017;28;20128;-68
2022/05/17 03:00:12;;;;;;;16.15;5.88;;;16.50;99.90;;;;;;5055867;28;20055;-67
2022/05/17 03:02:38;;;;;;;21.30;7.50;;;16.50;99.90;;;;;;5055684;28;20048;-68
2022/05/17 03:05:04;;;;;;;16.63;6.22;;;16.50;99.90;;;;;;5055771;28;20068;-68
2022/05/17 03:07:31;;;;;;;16.25;5.43;;;16.40;99.90;;;;;;5055388;28;20406;-68
2022/05/17 03:09:57;;;;;;;17.35;6.40;;;16.40;99.90;;;;;;5055759;28;20080;-68
2022/05/17 03:12:23;;;;;;;21.77;6.70;;;16.40;99.90;;;;;;5054987;28;20098;-68
2022/05/17 03:14:49;;;;;;;18.45;6.40;;;16.40;99.90;;;;;;5055541;28;20048;-68
2022/05/17 03:17:16;;;;;;;12.40;5.65;;;16.40;99.90;;;;;;5055697;28;20123;-68
2022/05/17 03:19:42;;;;;;;14.38;5.35;;;16.30;99.90;;;;;;5055443;28;20045;-68
2022/05/17 03:22:08;;;;;;;19.20;6.25;;;16.30;99.90;;;;;;5055502;28;20566;-68
2022/05/17 03:24:34;;;;;;;15.00;6.03;;;16.20;99.90;;;;;;5055368;28;20511;-67
2022/05/17 03:27:00;;;;;;;13.07;5.63;;;16.10;99.90;;;;;;5055711;28;20059;-68
2022/05/17 03:29:27;;;;;;;13.50;5.50;;;16.10;99.90;;;;;;5055127;28;20051;-68
2022/05/17 03:31:52;;;;;;;18.17;6.45;;;16.00;99.90;;;;;;5055467;28;20041;-68
2022/05/17 03:34:18;;;;;;;13.15;5.07;;;16.00;99.90;;;;;;5037815;28;20047;-68
2022/05/17 03:36:44;;;;;;;14.40;6.40;;;16.00;99.90;;;;;;5037220;28;20091;-68
2022/05/17 03:39:10;;;;;;;18.33;6.30;;;16.00;99.90;;;;;;5055045;28;20080;-68
2022/05/17 03:41:36;;;;;;;18.77;6.35;;;16.00;99.90;;;;;;5055036;28;20040;-68
2022/05/17 03:44:02;;;;;;;13.55;5.70;;;16.00;99.90;;;;;;5036918;28;20048;-68
2022/05/17 03:46:28;;;;;;;17.17;6.13;;;16.00;99.90;;;;;;5054860;28;20063;-68
2022/05/17 03:48:54;;;;;;;15.38;6.38;;;16.00;99.90;;;;;;5055076;28;20466;-67
2022/05/17 03:51:20;;;;;;;21.50;7.20;;;16.00;99.90;;;;;;5054558;28;20164;-68
2022/05/17 03:53:48;;;;;;;15.32;6.72;;;16.00;99.90;;;;;;5054656;28;20516;-67
2022/05/17 03:56:16;;;;;;;15.05;6.05;;;16.00;99.90;;;;;;5054844;28;20044;-68
2022/05/17 03:58:42;;;;;;;13.80;5.90;;;16.00;99.90;;;;;;5054607;28;20060;-68
2022/05/17 04:01:09;;;;;;;15.40;6.03;;;15.90;99.90;;;;;;5036956;28;20088;-68
2022/05/17 04:03:35;;;;;;;20.42;6.45;;;16.00;99.90;;;;;;5054400;28;20550;-68
2022/05/17 04:06:01;;;;;;;14.75;5.97;;;16.00;99.90;;;;;;5054433;28;20045;-68
2022/05/17 04:08:27;;;;;;;14.75;6.45;;;16.10;99.90;;;;;;5036692;28;20500;-67
2022/05/17 04:10:52;;;;;;;17.75;7.93;;;16.10;99.90;;;;;;5054369;28;20120;-68
2022/05/17 04:13:18;;;;;;;17.48;7.00;;;16.20;99.90;;;;;;5054297;28;20187;-68
2022/05/17 04:15:44;;;;;;;22.65;9.30;;;16.30;99.90;;;;;;5054537;28;20041;-68
2022/05/17 04:18:10;;;;;;;18.60;7.72;;;16.30;99.90;;;;;;5054549;28;20440;-68
2022/05/17 04:20:36;;;;;;;12.27;6.68;;;16.30;99.90;;;;;;5053998;28;20057;-68
2022/05/17 04:23:02;;;;;;;18.00;7.10;;;16.40;99.90;;;;;;5054186;28;20417;-67
2022/05/17 04:25:28;;;;;;;16.15;6.85;;;16.50;99.90;;;;;;5054226;28;20180;-68
2022/05/17 04:27:55;;;;;;;17.92;7.80;;;16.50;99.90;;;;;;5054366;28;20128;-67
2022/05/17 04:30:22;;;;;;;21.17;6.63;;;16.60;99.90;;;;;;5054045;28;20037;-67
2022/05/17 04:32:48;;;;;;;17.40;7.10;;;16.70;99.90;;;;;;5054642;28;20060;-69
2022/05/17 04:35:16;;;;;;;15.73;7.40;;;16.80;99.90;;;;;;5072531;28;20051;-68
2022/05/17 04:37:47;;;;;;;22.88;8.57;;;16.80;99.90;;;;;;5073947;28;20045;-68
2022/05/17 04:40:14;;;;;;;13.27;7.18;;;17.00;99.90;;;;;;5073879;28;20489;-68
2022/05/17 04:42:41;;;;;;;22.38;9.23;;;17.10;99.90;;;;;;5073463;28;20443;-68
2022/05/17 04:45:09;;;;;;;23.52;8.38;;;17.20;99.90;;;;;;5073716;28;20044;-68
2022/05/17 04:47:38;;;;;;;23.02;9.02;;;17.20;99.90;;;;;;5073749;28;20080;-68
2022/05/17 04:50:04;;;;;;;26.63;9.15;;;17.30;99.90;;;;;;5073941;28;20118;-67
2022/05/17 04:52:30;;;;;;;31.50;9.20;;;17.20;99.90;;;;;;5073676;28;20055;-67
2022/05/17 04:54:56;;;;;;;25.13;8.70;;;17.40;99.90;;;;;;5073680;28;20044;-67
2022/05/17 04:57:22;;;;;;;24.63;8.30;;;17.40;99.90;;;;;;5073694;28;20087;-67
2022/05/17 04:59:47;;;;;;;21.10;8.80;;;17.50;99.90;;;;;;5073551;28;20386;-68
2022/05/17 05:02:13;;;;;;;23.35;8.68;;;17.60;99.90;;;;;;5073277;28;20097;-68
2022/05/17 05:04:39;;;;;;;22.65;8.18;;;17.70;99.90;;;;;;5073616;28;20541;-67
2022/05/17 05:07:05;;;;;;;18.75;6.95;;;17.70;99.90;;;;;;5073845;28;20389;-68
2022/05/17 05:09:32;;;;;;;21.77;8.02;;;17.70;99.90;;;;;;5073561;28;20056;-68
2022/05/17 05:11:58;;;;;;;16.45;7.20;;;17.70;99.90;;;;;;5073623;28;20045;-68
2022/05/17 05:14:24;;;;;;;21.13;8.38;;;17.70;99.90;;;;;;5072305;28;20473;-68
2022/05/17 05:16:50;;;;;;;26.33;8.15;;;17.50;99.90;;;;;;5073786;28;20053;-68
2022/05/17 05:19:16;;;;;;;16.73;7.13;;;17.40;99.90;;;;;;5073155;28;20048;-68
2022/05/17 05:21:42;;;;;;;17.80;7.45;;;17.50;99.90;;;;;;5073235;28;20036;-68
2022/05/17 05:24:10;;;;;;;20.35;8.20;;;17.60;99.90;;;;;;5073468;28;20088;-68
2022/05/17 05:26:37;;;;;;;27.77;8.23;;;17.60;99.90;;;;;;5073182;28;20055;-68
2022/05/17 05:29:03;;;;;;;19.77;7.72;;;17.60;99.90;;;;;;5073139;28;20407;-68
2022/05/17 05:31:29;;;;;;;25.30;8.20;;;17.60;99.90;;;;;;5073189;28;20119;-68
2022/05/17 05:33:55;;;;;;;19.00;7.13;;;17.50;99.90;;;;;;5055718;28;20044;-68
2022/05/17 05:36:21;;;;;;;23.02;7.88;;;17.30;99.90;;;;;;5055392;28;20402;-68
2022/05/17 05:38:46;;;;;;;18.52;7.35;;;17.40;99.90;;;;;;5055422;28;20063;-68
2022/05/17 05:41:13;;;;;;;16.08;7.97;;;17.40;99.90;;;;;;5072969;28;20044;-68
2022/05/17 05:43:39;;;;;;;19.55;7.85;;;17.50;99.90;;;;;;5072621;28;20051;-69
2022/05/17 05:46:05;;;;;;;15.13;6.78;;;17.50;99.90;;;;;;5073325;28;20053;-68
2022/05/17 05:48:31;;;;;;;24.23;7.80;;;17.70;99.90;;;;;;5073078;28;20071;-68
2022/05/17 05:50:57;;;;;;;26.17;8.68;;;17.80;99.90;;;;;;5073029;28;20493;-68
2022/05/17 05:53:23;;;;;;;23.38;7.68;;;18.00;99.90;;;;;;5073005;28;20052;-68
2022/05/17 05:55:57;;;;;;;20.95;7.57;;;17.80;99.90;;;;;;5073055;28;20045;-67
2022/05/17 05:58:25;;;;;;;21.70;7.65;;;17.80;99.90;;;;;;5072761;28;20048;-68
2022/05/17 06:00:50;;;;;;;20.58;7.35;;;17.80;99.90;;;;;;5055046;28;20378;-68
2022/05/17 06:03:16;;;;;;;23.52;7.40;;;17.80;99.90;;;;;;5073452;28;20062;-68
2022/05/17 06:05:42;;;;;;;23.20;7.53;;;17.80;99.90;;;;;;5055419;28;20049;-68
2022/05/17 06:08:12;;;;;;;19.25;6.82;;;17.80;99.90;;;;;;5073081;28;20049;-68
2022/05/17 06:10:38;;;;;;;23.35;6.88;;;17.90;99.90;;;;;;5072686;28;20040;-68
2022/05/17 06:13:04;;;;;;;25.45;6.88;;;18.10;99.90;;;;;;5072310;28;20044;-68
2022/05/17 06:15:29;;;;;;;25.00;7.05;;;18.20;99.90;;;;;;5073066;28;20044;-68
2022/05/17 06:18:01;;;;;;;21.17;7.18;;;18.30;99.90;;;;;;5072819;28;20044;-68
2022/05/17 06:20:26;;;;;;;19.73;7.65;;;18.20;99.90;;;;;;5072874;28;20048;-68
2022/05/17 06:22:52;;;;;;;21.10;6.53;;;18.30;99.90;;;;;;5072669;28;20491;-68
2022/05/17 06:25:18;;;;;;;26.02;7.53;;;18.30;99.90;;;;;;5074732;28;20125;-68
2022/05/17 06:27:44;;;;;;;17.35;6.18;;;18.50;99.90;;;;;;5076333;28;20110;-68
2022/05/17 06:30:11;;;;;;;18.17;6.28;;;18.40;99.90;;;;;;5076554;28;20453;-68
2022/05/17 06:32:37;;;;;;;20.40;5.70;;;18.50;99.90;;;;;;5076310;28;20048;-68
2022/05/17 06:35:03;;;;;;;28.20;6.50;;;18.60;99.90;;;;;;5076310;28;20044;-68
2022/05/17 06:37:29;;;;;;;18.98;5.85;;;18.60;99.90;;;;;;5058538;28;20056;-67
2022/05/17 06:39:55;;;;;;;21.30;6.28;;;18.50;99.90;;;;;;5076303;28;20040;-68
2022/05/17 06:42:21;;;;;;;20.67;6.47;;;18.40;99.90;;;;;;5076244;28;20041;-68
2022/05/17 06:44:47;;;;;;;18.58;5.60;;;18.60;99.90;;;;;;5075743;28;20055;-68
2022/05/17 06:47:12;;;;;;;20.95;5.70;;;18.80;99.90;;;;;;5058807;28;20052;-67
2022/05/17 06:49:40;;;;;;;17.80;5.47;;;18.80;99.90;;;;;;5041959;28;20477;-69
2022/05/17 06:52:08;;;;;;;20.48;5.75;;;18.70;99.90;;;;;;5076168;28;20047;-70
2022/05/17 06:54:35;;;;;;;17.55;5.10;;;18.70;99.90;;;;;;5075966;28;20044;-69
2022/05/17 06:57:06;;;;;;;21.73;5.72;;;18.80;99.90;;;;;;5075788;28;20059;-69
2022/05/17 06:59:34;;;;;;;24.67;6.50;;;18.90;99.90;;;;;;5058294;28;20049;-69
2022/05/17 07:02:00;;;;;;;21.48;5.82;;;18.90;99.90;;;;;;5075879;28;20055;-69
2022/05/17 07:04:27;;;;;;;17.20;5.80;;;18.90;99.90;;;;;;5076024;28;20087;-69
2022/05/17 07:06:57;;;;;;;14.40;5.65;;;18.80;99.90;;;;;;5075686;28;20386;-69
2022/05/17 07:09:24;;;;;;;19.15;5.80;;;18.90;99.90;;;;;;5075633;28;20520;-69
2022/05/17 07:14:37;;;;;;;19.80;5.30;;;19.10;99.90;;;;;;5075318;28;20405;-69
2022/05/17 07:17:09;;;;;;;19.75;5.38;;;19.10;99.90;;;;;;5075762;28;20186;-69
2022/05/17 07:19:35;;;;;;;21.15;5.30;;;19.10;99.90;;;;;;5057863;28;20128;-69
2022/05/17 07:22:03;;;;;;;15.65;5.10;;;19.00;99.90;;;;;;5075222;28;20131;-69
2022/05/17 07:24:29;;;;;;;18.92;5.88;;;19.10;99.90;;;;;;5057641;28;20110;-70
2022/05/17 07:26:55;;;;;;;17.10;5.53;;;19.20;99.90;;;;;;5078845;28;20057;-70
2022/05/17 07:29:21;;;;;;;20.15;5.38;;;19.20;99.90;;;;;;5075136;28;20489;-70
2022/05/17 07:31:47;;;;;;;24.40;6.15;;;19.30;99.90;;;;;;5057986;28;20060;-70
2022/05/17 07:34:12;;;;;;;15.27;5.50;;;19.40;99.90;;;;;;5075120;28;20048;-70
2022/05/17 07:36:38;;;;;;;19.92;5.68;;;19.40;99.90;;;;;;5074623;28;20084;-70
2022/05/17 07:39:04;;;;;;;17.83;4.55;;;19.40;99.90;;;;;;5075083;28;20052;-70
2022/05/17 07:41:31;;;;;;;13.45;4.40;;;19.50;99.90;;;;;;5074974;28;20044;-70
2022/05/17 07:43:57;;;;;;;20.48;4.55;;;19.70;99.90;;;;;;5074865;28;20067;-79
2022/05/17 07:46:23;;;;;;;21.83;4.97;;;19.50;99.90;;;;;;5057285;28;20063;-69
2022/05/17 07:48:49;;;;;;;19.63;5.55;;;19.50;99.90;;;;;;5074923;28;20040;-71
2022/05/17 07:51:15;;;;;;;18.60;5.20;;;19.60;99.90;;;;;;5074530;28;20378;-69
2022/05/17 07:53:41;;;;;;;16.08;5.03;;;19.60;99.90;;;;;;5057744;28;20048;-71
2022/05/17 07:56:06;;;;;;;20.90;4.63;;;19.50;99.90;;;;;;5072688;28;20209;-71
2022/05/17 07:58:32;;;;;;;16.02;4.32;;;19.70;99.90;;;;;;5053838;28;20047;-70
2022/05/17 08:00:58;;;;;;;15.20;4.57;;;20.00;99.90;;;;;;5041409;28;20048;-75
2022/05/17 08:03:24;;;;;;;16.98;4.40;;;20.00;99.90;;;;;;5061504;28;20047;-72
2022/05/17 08:05:52;;;;;;;14.55;4.30;;;20.20;99.90;;;;;;5039352;28;20166;-71
2022/05/17 08:08:18;;;;;;;14.77;3.33;;;20.30;99.90;;;;;;5053963;28;20089;-71
2022/05/17 08:10:44;;;;;;;13.35;3.33;;;20.40;99.90;;;;;;5054652;28;20033;-71
2022/05/17 08:13:10;;;;;;;16.35;3.80;;;20.60;99.90;;;;;;5054005;28;20045;-73
2022/05/17 08:15:36;;;;;;;11.63;3.45;;;20.70;99.90;;;;;;5054682;28;20052;-71
2022/05/17 08:18:02;;;;;;;15.43;3.95;;;20.80;99.90;;;;;;5054600;28;20397;-71
2022/05/17 08:20:29;;;;;;;16.27;3.85;;;20.80;99.90;;;;;;5036940;28;20462;-71
2022/05/17 08:22:55;;;;;;;16.20;4.05;;;20.70;99.90;;;;;;5054142;28;20053;-69
2022/05/17 08:28:06;;;;;;;15.85;3.60;;;20.70;99.90;;;;;;5054245;28;20119;-70
2022/05/17 08:30:33;;;;;;;17.00;4.43;;;20.70;99.90;;;;;;5036411;28;20052;-69
2022/05/17 08:33:17;;;;;;;15.50;3.95;;;20.70;99.90;;;;;;5054046;28;20047;-69
2022/05/17 08:35:44;;;;;;;9.38;3.10;;;20.90;99.90;;;;;;5054346;28;20041;-70
2022/05/17 08:38:13;;;;;;;15.55;4.28;;;21.20;99.90;;;;;;5054233;28;20049;-69
2022/05/17 08:40:59;;;;;;;16.80;4.57;;;21.40;99.90;;;;;;5053790;28;20037;-68
2022/05/17 08:43:46;;;;;;;16.73;3.67;;;21.40;99.90;;;;;;5053016;28;20119;-68
2022/05/17 08:46:42;;;;;;;18.98;4.25;;;21.10;99.90;;;;;;5053986;28;20103;-69
2022/05/17 08:49:14;;;;;;;12.50;3.42;;;21.10;99.90;;;;;;5052944;28;20060;-68
2022/05/17 08:51:48;;;;;;;17.70;3.78;;;21.40;99.90;;;;;;5035785;28;20048;-67
2022/05/17 08:54:17;;;;;;;17.30;4.35;;;21.40;99.90;;;;;;5053859;28;20492;-68
2022/05/17 08:57:06;;;;;;;15.27;4.57;;;21.50;99.90;;;;;;5053912;28;20048;-71
2022/05/17 08:59:36;;;;;;;16.77;3.78;;;21.40;99.90;;;;;;5003060;28;20057;-69
2022/05/17 09:02:17;;;;;;;13.60;3.88;;;21.30;99.90;;;;;;5056091;28;20090;-73
2022/05/17 09:04:55;;;;;;;15.90;4.03;;;21.40;99.90;;;;;;5057413;28;20041;-70
2022/05/17 09:07:48;;;;;;;13.68;3.90;;;21.80;99.90;;;;;;5052390;28;20068;-70
2022/05/17 09:10:19;;;;;;;12.45;4.35;;;21.80;99.90;;;;;;5023261;28;20057;-70
2022/05/17 09:12:59;;;;;;;11.70;3.50;;;21.80;99.90;;;;;;5053100;28;20478;-70
2022/05/17 09:15:25;;;;;;;15.10;2.90;;;21.90;99.90;;;;;;5053407;28;20405;-70
2022/05/17 09:17:51;;;;;;;10.93;2.97;;;21.90;99.90;;;;;;5053173;28;20056;-70
2022/05/17 09:20:20;;;;;;;14.82;3.30;;;22.20;99.90;;;;;;5053133;28;20044;-70
2022/05/17 09:22:46;;;;;;;10.88;2.83;;;22.30;99.90;;;;;;5035229;28;20552;-70
2022/05/17 09:25:20;;;;;;;9.65;2.47;;;22.50;99.90;;;;;;5053753;28;20040;-70
2022/05/17 09:27:53;;;;;;;13.10;2.30;;;22.50;99.90;;;;;;5053529;28;20457;-70
2022/05/17 09:30:22;;;;;;;10.43;2.45;;;22.80;99.90;;;;;;5053440;28;20401;-70
2022/05/17 09:32:49;;;;;;;11.18;2.13;;;22.90;99.90;;;;;;5053346;28;20041;-70
2022/05/17 09:35:17;;;;;;;10.10;2.63;;;22.70;99.90;;;;;;5052882;28;20049;-70
2022/05/17 09:37:49;;;;;;;11.57;2.88;;;22.70;99.90;;;;;;5053047;28;20450;-72
2022/05/17 09:40:22;;;;;;;15.07;3.33;;;22.90;99.90;;;;;;5053326;28;20060;-70
2022/05/17 09:42:57;;;;;;;8.77;1.92;;;23.10;99.90;;;;;;5052557;28;20048;-70
2022/05/17 09:45:40;;;;;;;8.30;2.35;;;23.20;99.90;;;;;;5053030;28;20127;-69
2022/05/17 09:48:09;;;;;;;11.43;3.22;;;22.90;99.90;;;;;;5053119;28;20053;-70
2022/05/17 09:53:40;;;;;;;15.40;3.00;;;23.00;99.90;;;;;;5053235;28;20052;-69
2022/05/17 09:56:07;;;;;;;11.93;2.42;;;23.20;99.90;;;;;;5052843;28;20045;-70
2022/05/17 09:58:39;;;;;;;11.35;2.38;;;23.30;99.90;;;;;;5052759;28;20552;-70
2022/05/17 10:01:18;;;;;;;10.27;2.60;;;23.30;99.90;;;;;;5056317;28;20041;-70
2022/05/17 10:04:09;;;;;;;9.82;2.13;;;23.50;99.90;;;;;;5056905;28;20515;-70
2022/05/17 10:06:38;;;;;;;8.77;2.67;;;23.50;99.80;;;;;;5039141;28;20049;-70
2022/05/17 10:09:03;;;;;;;8.00;2.00;;;23.40;99.90;;;;;;5039203;28;20111;-70
2022/05/17 10:11:42;;;;;;;12.43;2.55;;;23.50;99.90;;;;;;5056744;28;20040;-70
2022/05/17 10:14:18;;;;;;;12.10;2.75;;;23.80;99.90;;;;;;5056360;28;20045;-70
2022/05/17 10:16:53;;;;;;;10.05;2.28;;;23.90;99.40;;;;;;5056651;28;20129;-70
2022/05/17 10:19:40;;;;;;;16.50;3.03;;;24.30;99.60;;;;;;5056743;28;20056;-70
2022/05/17 10:22:15;;;;;;;11.15;2.20;;;23.90;99.00;;;;;;5056831;28;20048;-70
2022/05/17 10:24:49;;;;;;;9.68;1.85;;;24.00;99.70;;;;;;5016859;28;20068;-70
2022/05/17 10:27:22;;;;;;;12.38;2.22;;;24.40;99.40;;;;;;5017071;28;20046;-70
2022/05/17 10:29:53;;;;;;;9.52;2.72;;;24.80;99.30;;;;;;5016685;28;20077;-70
2022/05/17 10:32:34;;;;;;;9.57;2.30;;;25.10;99.30;;;;;;5016938;28;20037;-70
2022/05/17 10:35:18;;;;;;;6.60;2.20;;;25.20;99.10;;;;;;5017194;28;20450;-70
2022/05/17 10:37:53;;;;;;;10.23;1.95;;;25.10;99.00;;;;;;5015377;28;20041;-71
2022/05/17 10:40:24;;;;;;;10.57;2.28;;;24.70;98.70;;;;;;5017073;28;20045;-70
2022/05/17 10:42:50;;;;;;;10.52;2.60;;;25.00;98.90;;;;;;5016191;28;20068;-70
2022/05/17 10:45:22;;;;;;;10.82;2.00;;;25.20;98.70;;;;;;5016447;28;20081;-70
2022/05/17 10:48:25;;;;;;;7.03;1.80;;;25.30;98.40;;;;;;5016580;28;20172;-70
2022/05/17 10:51:12;;;;;;;19.98;2.53;;;25.30;98.50;;;;;;5016550;28;20057;-70
2022/05/17 10:53:41;;;;;;;9.10;2.45;;;25.50;98.70;;;;;;5016381;28;20046;-70
2022/05/17 10:56:28;;;;;;;11.13;1.98;;;25.50;98.30;;;;;;5014998;28;20057;-70
2022/05/17 10:59:12;;;;;;;10.48;1.80;;;25.60;98.10;;;;;;5016434;28;20097;-70
2022/05/17 11:02:01;;;;;;;9.25;1.60;;;25.90;97.90;;;;;;5016302;28;20050;-70
2022/05/17 11:04:57;;;;;;;7.05;1.75;;;26.20;97.90;;;;;;5016309;28;20143;-70
2022/05/17 11:08:00;;;;;;;10.75;1.67;;;26.30;97.90;;;;;;5016285;28;20057;-70
2022/05/17 11:10:45;;;;;;;10.25;2.33;;;26.40;97.70;;;;;;5015993;28;20410;-70
2022/05/17 11:13:32;;;;;;;9.80;2.28;;;25.80;97.60;;;;;;5015315;28;20469;-70
2022/05/17 11:16:23;;;;;;;10.57;2.00;;;26.00;97.60;;;;;;5016221;28;20447;-70
2022/05/17 11:18:58;;;;;;;7.90;2.25;;;26.10;97.40;;;;;;5011107;28;20054;-70
2022/05/17 11:21:33;;;;;;;8.00;1.88;;;26.20;97.20;;;;;;5014832;28;20077;-71
2022/05/17 11:24:14;;;;;;;9.27;1.70;;;26.50;97.50;;;;;;5043599;28;20056;-70
2022/05/17 11:27:19;;;;;;;8.15;1.90;;;26.50;97.30;;;;;;5056027;28;20056;-70
2022/05/17 11:30:02;;;;;;;6.95;1.90;;;27.10;97.50;;;;;;4974607;28;20058;-70
2022/05/17 11:32:40;;;;;;;12.40;2.40;;;27.10;97.40;;;;;;4958356;28;20058;-70
2022/05/17 11:35:31;;;;;;;6.88;2.35;;;26.70;97.10;;;;;;5029064;28;20056;-70
2022/05/17 11:37:57;;;;;;;9.02;2.22;;;27.00;97.30;;;;;;5055291;28;20044;-70
2022/05/17 11:40:54;;;;;;;11.25;2.30;;;27.00;97.30;;;;;;5054928;28;20053;-70
2022/05/17 11:43:40;;;;;;;;;;;27.40;96.90;;;;;;5038010;28;20049;-70
2022/05/17 11:46:26;;;;;;;5.97;1.50;;;27.60;97.10;;;;;;5055537;28;19921;-70
2022/05/17 11:48:54;;;;;;;8.15;1.70;;;27.60;96.70;;;;;;5036531;28;20500;-70
2022/05/17 11:51:22;;;;;;;8.23;1.88;;;27.40;96.70;;;;;;5055154;28;20077;-70
2022/05/17 11:53:52;;;;;;;5.32;1.30;;;27.10;96.20;;;;;;5054770;28;20075;-70
2022/05/17 11:56:24;;;;;;;9.35;1.45;;;27.50;96.40;;;;;;5037134;28;20076;-70
2022/05/17 11:58:57;;;;;;;11.10;1.42;;;27.60;95.50;;;;;;5054688;28;20053;-70
2022/05/17 12:01:31;;;;;;;6.85;1.55;;;27.90;95.60;;;;;;5054686;28;20045;-70
2022/05/17 12:04:07;;;;;;;7.13;1.38;;;28.20;95.50;;;;;;5054818;28;20169;-70
2022/05/17 12:06:38;;;;;;;8.88;1.52;;;28.40;95.70;;;;;;5054553;28;20494;-70
2022/05/17 12:09:11;;;;;;;6.53;1.33;;;28.10;95.30;;;;;;5054723;28;20049;-70
2022/05/17 12:12:09;;;;;;;7.95;1.42;;;27.60;95.60;;;;;;5054367;28;20049;-70
2022/05/17 12:15:12;;;;;;;7.07;1.65;;;28.10;95.70;;;;;;5054064;28;20049;-70
2022/05/17 12:17:49;;;;;;;8.77;1.30;;;28.40;95.60;;;;;;5054552;28;20052;-70
2022/05/17 12:20:24;;;;;;;9.35;1.90;;;28.40;95.30;;;;;;5054146;28;20048;-70
2022/05/17 12:23:00;;;;;;;9.23;1.70;;;28.50;95.50;;;;;;5054364;28;20061;-70
2022/05/17 12:25:46;;;;;;;5.50;1.58;;;28.90;95.40;;;;;;5054802;28;20052;-70
2022/05/17 12:28:20;;;;;;;7.40;1.40;;;29.20;95.20;;;;;;5054290;28;20053;-70
2022/05/17 12:30:54;;;;;;;9.45;1.67;;;29.00;95.10;;;;;;5054501;28;20183;-71
2022/05/17 12:33:36;;;;;;;6.20;1.33;;;28.70;95.30;;;;;;5054153;28;20052;-70
2022/05/17 12:36:18;;;;;;;8.07;1.67;;;28.50;95.20;;;;;;5054437;28;20079;-70
2022/05/17 12:44:44;;;;;;;7.70;1.73;;;29.50;94.80;;;;;;5053442;28;20520;-70
2022/05/17 12:47:22;;;;;;;6.25;1.17;;;29.50;94.50;;;;;;5053959;28;20051;-70
2022/05/17 12:49:56;;;;;;;6.13;1.33;;;29.60;94.50;;;;;;5053849;28;20568;-70
2022/05/17 12:52:32;;;;;;;6.00;1.30;;;29.70;94.30;;;;;;5054023;28;20071;-70
2022/05/17 12:55:09;;;;;;;5.28;1.38;;;29.80;94.40;;;;;;5053879;28;20044;-70
2022/05/17 12:57:38;;;;;;;13.75;1.80;;;29.70;94.20;;;;;;5053640;28;20041;-71
2022/05/17 13:00:15;;;;;;;5.30;1.55;;;30.00;93.90;;;;;;5053751;28;20099;-70
2022/05/17 13:02:48;;;;;;;6.00;1.60;;;30.00;94.00;;;;;;5053636;28;20135;-70
2022/05/17 13:05:33;;;;;;;3.95;1.25;;;30.20;94.00;;;;;;5053783;28;20051;-71
2022/05/17 13:08:12;;;;;;;5.20;1.88;;;30.20;93.70;;;;;;5053348;28;20037;-70
2022/05/17 13:10:41;;;;;;;9.85;1.50;;;29.40;93.60;;;;;;5053973;28;20063;-70
2022/05/17 13:13:21;;;;;;;7.47;1.42;;;29.10;93.60;;;;;;5053231;28;20053;-70